sensor_id;sensor_type;location;lat;lon;timestamp;P1;durP1;ratioP1;P2;durP2;ratioP2
12181;SDS011;6154;51.550;12.138;2024-03-23T00:56:07;2.55;;;1.58;;
12181;SDS011;6154;51.550;12.138;2024-03-23T00:58:36;3.03;;;1.27;;
12181;SDS011;6154;51.550;12.138;2024-03-23T01:01:03;2.45;;;1.33;;
12181;SDS011;6154;51.550;12.138;2024-03-23T01:03:30;2.75;;;1.85;;
12181;SDS011;6154;51.550;12.138;2024-03-23T01:05:58;1.87;;;1.37;;
12181;SDS011;6154;51.550;12.138;2024-03-23T01:08:26;2.15;;;1.62;;
12181;SDS011;6154;51.550;12.138;2024-03-23T01:10:55;4.20;;;1.60;;
12181;SDS011;6154;51.550;12.138;2024-03-23T01:13:23;2.45;;;1.00;;
12181;SDS011;6154;51.550;12.138;2024-03-23T01:15:50;3.58;;;1.55;;
12181;SDS011;6154;51.550;12.138;2024-03-23T01:18:17;3.92;;;1.75;;
12181;SDS011;6154;51.550;12.138;2024-03-23T01:20:44;2.90;;;1.90;;
12181;SDS011;6154;51.550;12.138;2024-03-23T01:23:11;3.42;;;1.70;;
12181;SDS011;6154;51.550;12.138;2024-03-23T01:25:37;3.25;;;1.75;;
12181;SDS011;6154;51.550;12.138;2024-03-23T01:28:05;3.80;;;2.33;;
12181;SDS011;6154;51.550;12.138;2024-03-23T01:30:33;2.60;;;2.00;;
12181;SDS011;6154;51.550;12.138;2024-03-23T01:33:01;4.72;;;2.47;;
12181;SDS011;6154;51.550;12.138;2024-03-23T01:35:28;5.45;;;2.65;;
12181;SDS011;6154;51.550;12.138;2024-03-23T01:37:55;3.40;;;2.28;;
12181;SDS011;6154;51.550;12.138;2024-03-23T01:40:21;3.50;;;2.12;;
12181;SDS011;6154;51.550;12.138;2024-03-23T01:42:57;5.25;;;2.72;;
12181;SDS011;6154;51.550;12.138;2024-03-23T01:45:23;3.22;;;2.37;;
12181;SDS011;6154;51.550;12.138;2024-03-23T01:47:52;3.17;;;1.73;;
12181;SDS011;6154;51.550;12.138;2024-03-23T01:50:18;3.55;;;2.33;;
12181;SDS011;6154;51.550;12.138;2024-03-23T01:52:46;6.87;;;2.28;;
12181;SDS011;6154;51.550;12.138;2024-03-23T01:55:13;4.43;;;2.15;;
12181;SDS011;6154;51.550;12.138;2024-03-23T01:57:41;3.00;;;2.00;;
12181;SDS011;6154;51.550;12.138;2024-03-23T02:00:07;5.75;;;1.50;;
12181;SDS011;6154;51.550;12.138;2024-03-23T02:02:40;3.80;;;2.42;;
12181;SDS011;6154;51.550;12.138;2024-03-23T02:05:09;4.78;;;2.28;;
12181;SDS011;6154;51.550;12.138;2024-03-23T02:07:37;4.53;;;2.58;;
12181;SDS011;6154;51.550;12.138;2024-03-23T02:10:04;6.62;;;2.42;;
12181;SDS011;6154;51.550;12.138;2024-03-23T02:12:33;5.15;;;2.30;;
12181;SDS011;6154;51.550;12.138;2024-03-23T02:14:59;4.12;;;2.12;;
12181;SDS011;6154;51.550;12.138;2024-03-23T02:17:26;6.75;;;2.90;;
12181;SDS011;6154;51.550;12.138;2024-03-23T02:19:53;2.53;;;1.92;;
12181;SDS011;6154;51.550;12.138;2024-03-23T02:22:21;3.62;;;2.00;;
12181;SDS011;6154;51.550;12.138;2024-03-23T02:24:49;5.75;;;1.90;;
12181;SDS011;6154;51.550;12.138;2024-03-23T02:27:16;6.22;;;2.40;;
12181;SDS011;6154;51.550;12.138;2024-03-23T02:29:42;4.70;;;2.92;;
12181;SDS011;6154;51.550;12.138;2024-03-23T02:32:09;2.58;;;2.03;;
12181;SDS011;6154;51.550;12.138;2024-03-23T02:34:35;5.05;;;2.08;;
12181;SDS011;6154;51.550;12.138;2024-03-23T02:37:02;2.97;;;1.95;;
12181;SDS011;6154;51.550;12.138;2024-03-23T02:39:28;6.82;;;2.28;;
12181;SDS011;6154;51.550;12.138;2024-03-23T02:41:57;3.65;;;2.20;;
12181;SDS011;6154;51.550;12.138;2024-03-23T02:44:23;2.92;;;1.70;;
12181;SDS011;6154;51.550;12.138;2024-03-23T02:46:50;6.45;;;2.12;;
12181;SDS011;6154;51.550;12.138;2024-03-23T02:49:16;7.78;;;2.28;;
12181;SDS011;6154;51.550;12.138;2024-03-23T02:51:43;3.87;;;2.10;;
12181;SDS011;6154;51.550;12.138;2024-03-23T02:54:10;5.50;;;2.67;;
12181;SDS011;6154;51.550;12.138;2024-03-23T02:56:38;4.60;;;2.60;;
12181;SDS011;6154;51.550;12.138;2024-03-23T02:59:05;4.22;;;1.92;;
12181;SDS011;6154;51.550;12.138;2024-03-23T03:01:32;4.28;;;2.83;;
12181;SDS011;6154;51.550;12.138;2024-03-23T03:03:58;4.93;;;2.92;;
12181;SDS011;6154;51.550;12.138;2024-03-23T03:06:27;6.65;;;2.42;;
12181;SDS011;6154;51.550;12.138;2024-03-23T03:08:54;4.70;;;1.95;;
12181;SDS011;6154;51.550;12.138;2024-03-23T03:11:21;6.40;;;2.10;;
12181;SDS011;6154;51.550;12.138;2024-03-23T03:13:47;4.72;;;1.98;;
12181;SDS011;6154;51.550;12.138;2024-03-23T03:16:15;3.45;;;2.00;;
12181;SDS011;6154;51.550;12.138;2024-03-23T03:18:42;5.15;;;2.45;;
12181;SDS011;6154;51.550;12.138;2024-03-23T03:21:09;2.05;;;1.80;;
12181;SDS011;6154;51.550;12.138;2024-03-23T03:23:36;7.45;;;2.08;;
12181;SDS011;6154;51.550;12.138;2024-03-23T03:26:04;2.78;;;2.03;;
12181;SDS011;6154;51.550;12.138;2024-03-23T03:28:30;8.52;;;2.17;;
12181;SDS011;6154;51.550;12.138;2024-03-23T03:31:00;5.32;;;2.20;;
12181;SDS011;6154;51.550;12.138;2024-03-23T03:33:28;4.85;;;2.37;;
12181;SDS011;6154;51.550;12.138;2024-03-23T03:35:55;5.55;;;2.35;;
12181;SDS011;6154;51.550;12.138;2024-03-23T03:38:21;9.27;;;3.28;;
12181;SDS011;6154;51.550;12.138;2024-03-23T03:40:49;8.18;;;2.83;;
12181;SDS011;6154;51.550;12.138;2024-03-23T03:43:15;2.83;;;2.00;;
12181;SDS011;6154;51.550;12.138;2024-03-23T03:45:41;5.40;;;2.62;;
12181;SDS011;6154;51.550;12.138;2024-03-23T03:48:08;5.47;;;2.40;;
12181;SDS011;6154;51.550;12.138;2024-03-23T03:50:36;2.85;;;1.73;;
12181;SDS011;6154;51.550;12.138;2024-03-23T03:53:02;8.30;;;2.15;;
12181;SDS011;6154;51.550;12.138;2024-03-23T03:55:30;4.03;;;2.65;;
12181;SDS011;6154;51.550;12.138;2024-03-23T03:57:56;4.95;;;1.83;;
12181;SDS011;6154;51.550;12.138;2024-03-23T04:00:23;6.53;;;2.10;;
12181;SDS011;6154;51.550;12.138;2024-03-23T04:02:49;4.03;;;2.28;;
12181;SDS011;6154;51.550;12.138;2024-03-23T04:05:16;8.27;;;2.42;;
12181;SDS011;6154;51.550;12.138;2024-03-23T04:07:43;4.30;;;2.50;;
12181;SDS011;6154;51.550;12.138;2024-03-23T04:10:11;6.07;;;2.78;;
12181;SDS011;6154;51.550;12.138;2024-03-23T04:12:37;4.47;;;2.55;;
12181;SDS011;6154;51.550;12.138;2024-03-23T04:15:04;4.47;;;2.50;;
12181;SDS011;6154;51.550;12.138;2024-03-23T04:17:31;3.78;;;2.67;;
12181;SDS011;6154;51.550;12.138;2024-03-23T04:20:00;5.20;;;2.15;;
12181;SDS011;6154;51.550;12.138;2024-03-23T04:22:27;2.85;;;2.00;;
12181;SDS011;6154;51.550;12.138;2024-03-23T04:24:56;6.80;;;2.53;;
12181;SDS011;6154;51.550;12.138;2024-03-23T04:27:22;4.57;;;2.53;;
12181;SDS011;6154;51.550;12.138;2024-03-23T04:29:50;4.78;;;2.85;;
12181;SDS011;6154;51.550;12.138;2024-03-23T04:32:17;3.42;;;2.10;;
12181;SDS011;6154;51.550;12.138;2024-03-23T04:34:44;4.40;;;2.10;;
12181;SDS011;6154;51.550;12.138;2024-03-23T04:37:10;4.00;;;1.80;;
12181;SDS011;6154;51.550;12.138;2024-03-23T04:39:38;6.60;;;2.35;;
12181;SDS011;6154;51.550;12.138;2024-03-23T04:42:06;6.37;;;2.15;;
12181;SDS011;6154;51.550;12.138;2024-03-23T04:44:33;7.75;;;2.60;;
12181;SDS011;6154;51.550;12.138;2024-03-23T04:47:01;7.25;;;2.70;;
12181;SDS011;6154;51.550;12.138;2024-03-23T04:49:28;4.30;;;2.28;;
12181;SDS011;6154;51.550;12.138;2024-03-23T04:51:55;4.47;;;2.25;;
12181;SDS011;6154;51.550;12.138;2024-03-23T04:54:22;5.07;;;2.22;;
12181;SDS011;6154;51.550;12.138;2024-03-23T04:56:49;3.72;;;2.12;;
12181;SDS011;6154;51.550;12.138;2024-03-23T04:59:18;6.25;;;2.58;;
12181;SDS011;6154;51.550;12.138;2024-03-23T05:01:44;3.80;;;2.25;;
12181;SDS011;6154;51.550;12.138;2024-03-23T05:04:11;6.93;;;2.62;;
12181;SDS011;6154;51.550;12.138;2024-03-23T05:06:37;5.07;;;2.47;;
12181;SDS011;6154;51.550;12.138;2024-03-23T05:09:04;3.67;;;1.67;;
12181;SDS011;6154;51.550;12.138;2024-03-23T05:11:31;6.35;;;2.30;;
12181;SDS011;6154;51.550;12.138;2024-03-23T05:13:59;3.60;;;1.42;;
12181;SDS011;6154;51.550;12.138;2024-03-23T05:16:27;4.12;;;2.10;;
12181;SDS011;6154;51.550;12.138;2024-03-23T05:18:54;5.55;;;1.90;;
12181;SDS011;6154;51.550;12.138;2024-03-23T05:21:20;4.90;;;2.72;;
12181;SDS011;6154;51.550;12.138;2024-03-23T05:23:47;3.20;;;2.10;;
12181;SDS011;6154;51.550;12.138;2024-03-23T05:26:13;2.60;;;1.77;;
12181;SDS011;6154;51.550;12.138;2024-03-23T05:28:40;3.83;;;2.05;;
12181;SDS011;6154;51.550;12.138;2024-03-23T05:31:06;7.37;;;1.87;;
12181;SDS011;6154;51.550;12.138;2024-03-23T05:33:35;5.28;;;2.22;;
12181;SDS011;6154;51.550;12.138;2024-03-23T05:36:03;6.53;;;2.50;;
12181;SDS011;6154;51.550;12.138;2024-03-23T05:38:31;6.28;;;2.28;;
12181;SDS011;6154;51.550;12.138;2024-03-23T05:40:58;4.65;;;2.17;;
12181;SDS011;6154;51.550;12.138;2024-03-23T05:43:26;4.22;;;1.83;;
12181;SDS011;6154;51.550;12.138;2024-03-23T05:45:54;4.78;;;1.70;;
12181;SDS011;6154;51.550;12.138;2024-03-23T05:48:21;4.28;;;1.73;;
12181;SDS011;6154;51.550;12.138;2024-03-23T05:50:49;6.55;;;1.20;;
12181;SDS011;6154;51.550;12.138;2024-03-23T05:53:17;4.15;;;1.80;;
12181;SDS011;6154;51.550;12.138;2024-03-23T05:55:43;2.33;;;1.30;;
12181;SDS011;6154;51.550;12.138;2024-03-23T05:58:11;3.08;;;1.50;;
12181;SDS011;6154;51.550;12.138;2024-03-23T06:00:37;3.85;;;1.30;;
12181;SDS011;6154;51.550;12.138;2024-03-23T06:03:04;7.28;;;1.62;;
12181;SDS011;6154;51.550;12.138;2024-03-23T06:05:30;2.80;;;1.37;;
12181;SDS011;6154;51.550;12.138;2024-03-23T06:07:59;12.37;;;1.73;;
12181;SDS011;6154;51.550;12.138;2024-03-23T06:10:25;4.53;;;1.17;;
12181;SDS011;6154;51.550;12.138;2024-03-23T06:12:52;3.03;;;1.15;;
12181;SDS011;6154;51.550;12.138;2024-03-23T06:15:19;3.08;;;1.60;;
12181;SDS011;6154;51.550;12.138;2024-03-23T06:17:46;7.90;;;1.67;;
12181;SDS011;6154;51.550;12.138;2024-03-23T06:20:12;3.42;;;1.33;;
12181;SDS011;6154;51.550;12.138;2024-03-23T06:22:39;3.97;;;1.30;;
12181;SDS011;6154;51.550;12.138;2024-03-23T06:25:07;5.28;;;1.23;;
12181;SDS011;6154;51.550;12.138;2024-03-23T06:27:35;5.82;;;1.05;;
12181;SDS011;6154;51.550;12.138;2024-03-23T06:30:01;5.25;;;1.00;;
12181;SDS011;6154;51.550;12.138;2024-03-23T06:32:28;6.90;;;1.15;;
12181;SDS011;6154;51.550;12.138;2024-03-23T06:34:54;2.70;;;1.20;;
12181;SDS011;6154;51.550;12.138;2024-03-23T06:37:22;5.53;;;1.00;;
12181;SDS011;6154;51.550;12.138;2024-03-23T06:39:48;2.72;;;0.98;;
12181;SDS011;6154;51.550;12.138;2024-03-23T06:42:16;9.57;;;1.00;;
12181;SDS011;6154;51.550;12.138;2024-03-23T06:44:43;2.70;;;0.90;;
12181;SDS011;6154;51.550;12.138;2024-03-23T06:47:10;0.93;;;0.82;;
12181;SDS011;6154;51.550;12.138;2024-03-23T06:49:36;4.12;;;0.80;;
12181;SDS011;6154;51.550;12.138;2024-03-23T06:52:03;5.07;;;1.35;;
12181;SDS011;6154;51.550;12.138;2024-03-23T06:54:30;1.65;;;0.85;;
12181;SDS011;6154;51.550;12.138;2024-03-23T06:56:57;1.75;;;0.70;;
12181;SDS011;6154;51.550;12.138;2024-03-23T06:59:24;0.60;;;0.60;;
12181;SDS011;6154;51.550;12.138;2024-03-23T07:01:51;1.95;;;0.75;;
12181;SDS011;6154;51.550;12.138;2024-03-23T07:04:17;2.35;;;0.65;;
12181;SDS011;6154;51.550;12.138;2024-03-23T07:06:44;1.05;;;0.60;;
12181;SDS011;6154;51.550;12.138;2024-03-23T07:09:11;1.50;;;0.80;;
12181;SDS011;6154;51.550;12.138;2024-03-23T07:11:38;2.95;;;0.95;;
12181;SDS011;6154;51.550;12.138;2024-03-23T07:14:04;3.15;;;0.70;;
12181;SDS011;6154;51.550;12.138;2024-03-23T07:16:33;1.17;;;0.70;;
12181;SDS011;6154;51.550;12.138;2024-03-23T07:18:58;1.42;;;0.93;;
12181;SDS011;6154;51.550;12.138;2024-03-23T07:21:25;2.12;;;0.52;;
12181;SDS011;6154;51.550;12.138;2024-03-23T07:23:52;4.20;;;1.20;;
12181;SDS011;6154;51.550;12.138;2024-03-23T07:26:19;3.75;;;0.95;;
12181;SDS011;6154;51.550;12.138;2024-03-23T07:28:45;0.80;;;0.40;;
12181;SDS011;6154;51.550;12.138;2024-03-23T07:31:13;5.93;;;0.90;;
12181;SDS011;6154;51.550;12.138;2024-03-23T07:33:46;0.98;;;0.52;;
12181;SDS011;6154;51.550;12.138;2024-03-23T07:36:14;0.60;;;0.50;;
12181;SDS011;6154;51.550;12.138;2024-03-23T07:38:40;3.75;;;0.82;;
12181;SDS011;6154;51.550;12.138;2024-03-23T07:41:08;0.43;;;0.40;;
12181;SDS011;6154;51.550;12.138;2024-03-23T07:43:36;3.08;;;0.90;;
12181;SDS011;6154;51.550;12.138;2024-03-23T07:46:03;4.22;;;1.15;;
12181;SDS011;6154;51.550;12.138;2024-03-23T07:48:30;1.55;;;0.50;;
12181;SDS011;6154;51.550;12.138;2024-03-23T07:50:59;0.30;;;0.30;;
12181;SDS011;6154;51.550;12.138;2024-03-23T07:53:26;2.62;;;0.47;;
12181;SDS011;6154;51.550;12.138;2024-03-23T07:55:54;2.50;;;0.82;;
12181;SDS011;6154;51.550;12.138;2024-03-23T07:58:21;1.70;;;0.55;;
12181;SDS011;6154;51.550;12.138;2024-03-23T08:00:48;0.82;;;0.60;;
12181;SDS011;6154;51.550;12.138;2024-03-23T08:03:14;3.05;;;0.80;;
12181;SDS011;6154;51.550;12.138;2024-03-23T08:05:41;1.75;;;0.60;;
12181;SDS011;6154;51.550;12.138;2024-03-23T08:08:09;2.25;;;0.52;;
12181;SDS011;6154;51.550;12.138;2024-03-23T08:10:36;2.03;;;1.05;;
12181;SDS011;6154;51.550;12.138;2024-03-23T08:13:03;4.20;;;0.55;;
12181;SDS011;6154;51.550;12.138;2024-03-23T08:15:30;0.20;;;0.20;;
12181;SDS011;6154;51.550;12.138;2024-03-23T08:20:26;1.87;;;0.70;;
12181;SDS011;6154;51.550;12.138;2024-03-23T08:22:52;0.50;;;0.50;;
12181;SDS011;6154;51.550;12.138;2024-03-23T08:25:21;3.50;;;0.52;;
12181;SDS011;6154;51.550;12.138;2024-03-23T08:27:47;1.10;;;0.57;;
12181;SDS011;6154;51.550;12.138;2024-03-23T08:30:14;1.17;;;0.40;;
12181;SDS011;6154;51.550;12.138;2024-03-23T08:32:41;0.93;;;0.47;;
12181;SDS011;6154;51.550;12.138;2024-03-23T08:35:08;1.85;;;0.82;;
12181;SDS011;6154;51.550;12.138;2024-03-23T08:37:35;1.65;;;0.60;;
12181;SDS011;6154;51.550;12.138;2024-03-23T08:40:02;0.85;;;0.50;;
12181;SDS011;6154;51.550;12.138;2024-03-23T08:42:31;2.50;;;0.40;;
12181;SDS011;6154;51.550;12.138;2024-03-23T08:44:58;0.65;;;0.37;;
12181;SDS011;6154;51.550;12.138;2024-03-23T08:47:25;1.00;;;0.50;;
12181;SDS011;6154;51.550;12.138;2024-03-23T08:49:52;1.85;;;0.40;;
12181;SDS011;6154;51.550;12.138;2024-03-23T08:52:18;2.03;;;0.40;;
12181;SDS011;6154;51.550;12.138;2024-03-23T08:54:45;0.65;;;0.60;;
12181;SDS011;6154;51.550;12.138;2024-03-23T08:57:11;1.87;;;0.82;;
12181;SDS011;6154;51.550;12.138;2024-03-23T08:59:40;0.95;;;0.43;;
12181;SDS011;6154;51.550;12.138;2024-03-23T09:02:06;0.30;;;0.30;;
12181;SDS011;6154;51.550;12.138;2024-03-23T09:04:33;1.10;;;0.68;;
12181;SDS011;6154;51.550;12.138;2024-03-23T09:07:00;0.98;;;0.50;;
12181;SDS011;6154;51.550;12.138;2024-03-23T09:09:28;0.55;;;0.37;;
12181;SDS011;6154;51.550;12.138;2024-03-23T09:11:54;2.08;;;0.50;;
12181;SDS011;6154;51.550;12.138;2024-03-23T09:14:21;0.85;;;0.50;;
12181;SDS011;6154;51.550;12.138;2024-03-23T09:16:50;0.30;;;0.30;;
12181;SDS011;6154;51.550;12.138;2024-03-23T09:19:17;0.35;;;0.35;;
12181;SDS011;6154;51.550;12.138;2024-03-23T09:21:43;2.03;;;0.40;;
12181;SDS011;6154;51.550;12.138;2024-03-23T09:24:11;0.82;;;0.30;;
12181;SDS011;6154;51.550;12.138;2024-03-23T09:26:37;0.20;;;0.15;;
12181;SDS011;6154;51.550;12.138;2024-03-23T09:29:04;0.28;;;0.28;;
12181;SDS011;6154;51.550;12.138;2024-03-23T09:31:30;1.00;;;0.30;;
12181;SDS011;6154;51.550;12.138;2024-03-23T09:34:00;2.30;;;0.37;;
12181;SDS011;6154;51.550;12.138;2024-03-23T09:36:26;2.87;;;0.47;;
12181;SDS011;6154;51.550;12.138;2024-03-23T09:38:54;1.40;;;0.40;;
12181;SDS011;6154;51.550;12.138;2024-03-23T09:41:20;1.35;;;0.73;;
12181;SDS011;6154;51.550;12.138;2024-03-23T09:43:47;1.17;;;0.60;;
12181;SDS011;6154;51.550;12.138;2024-03-23T09:46:15;1.17;;;0.70;;
12181;SDS011;6154;51.550;12.138;2024-03-23T09:48:42;6.25;;;1.30;;
12181;SDS011;6154;51.550;12.138;2024-03-23T09:51:11;2.10;;;1.08;;
12181;SDS011;6154;51.550;12.138;2024-03-23T09:53:39;3.80;;;1.35;;
12181;SDS011;6154;51.550;12.138;2024-03-23T09:56:05;3.85;;;1.17;;
12181;SDS011;6154;51.550;12.138;2024-03-23T09:58:34;3.35;;;1.48;;
12181;SDS011;6154;51.550;12.138;2024-03-23T10:01:00;5.72;;;1.10;;
12181;SDS011;6154;51.550;12.138;2024-03-23T10:03:29;3.97;;;1.17;;
12181;SDS011;6154;51.550;12.138;2024-03-23T10:06:01;4.30;;;1.73;;
12181;SDS011;6154;51.550;12.138;2024-03-23T10:08:31;5.20;;;2.33;;
12181;SDS011;6154;51.550;12.138;2024-03-23T10:10:59;7.28;;;3.67;;
12181;SDS011;6154;51.550;12.138;2024-03-23T10:13:41;11.32;;;4.18;;
12181;SDS011;6154;51.550;12.138;2024-03-23T10:16:09;8.00;;;3.50;;
12181;SDS011;6154;51.550;12.138;2024-03-23T10:18:37;3.33;;;1.58;;
12181;SDS011;6154;51.550;12.138;2024-03-23T10:21:07;6.78;;;3.22;;
12181;SDS011;6154;51.550;12.138;2024-03-23T10:23:38;4.53;;;2.30;;
12181;SDS011;6154;51.550;12.138;2024-03-23T10:26:15;4.28;;;2.03;;
12181;SDS011;6154;51.550;12.138;2024-03-23T10:28:51;2.33;;;1.40;;
12181;SDS011;6154;51.550;12.138;2024-03-23T10:31:20;5.03;;;1.55;;
12181;SDS011;6154;51.550;12.138;2024-03-23T10:33:47;4.20;;;1.80;;
12181;SDS011;6154;51.550;12.138;2024-03-23T10:36:14;0.82;;;0.77;;
12181;SDS011;6154;51.550;12.138;2024-03-23T10:43:08;5.87;;;1.20;;
12181;SDS011;6154;51.550;12.138;2024-03-23T10:45:36;5.90;;;1.83;;
12181;SDS011;6154;51.550;12.138;2024-03-23T10:48:03;5.50;;;1.62;;
12181;SDS011;6154;51.550;12.138;2024-03-23T10:54:56;3.12;;;0.88;;
12181;SDS011;6154;51.550;12.138;2024-03-23T10:57:26;1.48;;;0.85;;
12181;SDS011;6154;51.550;12.138;2024-03-23T10:59:56;4.05;;;0.80;;
12181;SDS011;6154;51.550;12.138;2024-03-23T11:02:24;1.37;;;0.68;;
12181;SDS011;6154;51.550;12.138;2024-03-23T11:04:52;2.17;;;0.55;;
12181;SDS011;6154;51.550;12.138;2024-03-23T11:07:29;3.67;;;0.80;;
12181;SDS011;6154;51.550;12.138;2024-03-23T11:09:57;2.05;;;0.43;;
12181;SDS011;6154;51.550;12.138;2024-03-23T11:12:28;2.85;;;0.82;;
12181;SDS011;6154;51.550;12.138;2024-03-23T11:15:00;1.27;;;0.65;;
12181;SDS011;6154;51.550;12.138;2024-03-23T11:17:29;1.17;;;0.77;;
12181;SDS011;6154;51.550;12.138;2024-03-23T11:19:58;3.00;;;0.75;;
12181;SDS011;6154;51.550;12.138;2024-03-23T11:22:39;3.28;;;0.65;;
12181;SDS011;6154;51.550;12.138;2024-03-23T11:25:13;4.75;;;0.90;;
12181;SDS011;6154;51.550;12.138;2024-03-23T11:27:42;4.12;;;0.88;;
12181;SDS011;6154;51.550;12.138;2024-03-23T11:30:12;2.80;;;1.08;;
12181;SDS011;6154;51.550;12.138;2024-03-23T11:32:40;2.90;;;0.60;;
12181;SDS011;6154;51.550;12.138;2024-03-23T11:35:07;0.73;;;0.40;;
12181;SDS011;6154;51.550;12.138;2024-03-23T11:37:36;7.25;;;1.33;;
12181;SDS011;6154;51.550;12.138;2024-03-23T11:40:16;1.12;;;0.47;;
12181;SDS011;6154;51.550;12.138;2024-03-23T11:42:44;1.67;;;0.60;;
12181;SDS011;6154;51.550;12.138;2024-03-23T11:45:12;2.03;;;0.43;;
12181;SDS011;6154;51.550;12.138;2024-03-23T11:47:41;4.70;;;1.05;;
12181;SDS011;6154;51.550;12.138;2024-03-23T11:50:08;3.08;;;0.90;;
12181;SDS011;6154;51.550;12.138;2024-03-23T11:52:35;2.05;;;0.70;;
12181;SDS011;6154;51.550;12.138;2024-03-23T11:55:05;2.80;;;0.57;;
12181;SDS011;6154;51.550;12.138;2024-03-23T11:57:33;2.00;;;0.60;;
12181;SDS011;6154;51.550;12.138;2024-03-23T12:00:00;1.98;;;0.68;;
12181;SDS011;6154;51.550;12.138;2024-03-23T12:02:28;2.33;;;0.80;;
12181;SDS011;6154;51.550;12.138;2024-03-23T12:04:54;1.67;;;0.55;;
12181;SDS011;6154;51.550;12.138;2024-03-23T12:07:21;1.17;;;0.50;;
12181;SDS011;6154;51.550;12.138;2024-03-23T12:09:49;3.62;;;0.73;;
12181;SDS011;6154;51.550;12.138;2024-03-23T12:12:29;2.78;;;0.62;;
12181;SDS011;6154;51.550;12.138;2024-03-23T12:15:02;3.05;;;0.60;;
12181;SDS011;6154;51.550;12.138;2024-03-23T12:17:33;9.23;;;1.42;;
12181;SDS011;6154;51.550;12.138;2024-03-23T12:20:00;2.05;;;0.65;;
12181;SDS011;6154;51.550;12.138;2024-03-23T12:22:28;1.70;;;0.47;;
12181;SDS011;6154;51.550;12.138;2024-03-23T12:24:55;1.45;;;0.60;;
12181;SDS011;6154;51.550;12.138;2024-03-23T12:27:23;3.05;;;0.57;;
12181;SDS011;6154;51.550;12.138;2024-03-23T12:29:49;0.75;;;0.30;;
12181;SDS011;6154;51.550;12.138;2024-03-23T12:32:16;3.03;;;0.68;;
12181;SDS011;6154;51.550;12.138;2024-03-23T12:34:43;1.15;;;0.70;;
12181;SDS011;6154;51.550;12.138;2024-03-23T12:37:10;1.50;;;0.90;;
12181;SDS011;6154;51.550;12.138;2024-03-23T12:39:38;3.62;;;0.77;;
12181;SDS011;6154;51.550;12.138;2024-03-23T12:42:05;0.93;;;0.57;;
12181;SDS011;6154;51.550;12.138;2024-03-23T12:44:31;0.85;;;0.60;;
12181;SDS011;6154;51.550;12.138;2024-03-23T12:46:58;1.87;;;0.70;;
12181;SDS011;6154;51.550;12.138;2024-03-23T12:49:25;2.17;;;1.02;;
12181;SDS011;6154;51.550;12.138;2024-03-23T12:51:56;3.12;;;0.82;;
12181;SDS011;6154;51.550;12.138;2024-03-23T12:54:23;3.42;;;0.80;;
12181;SDS011;6154;51.550;12.138;2024-03-23T12:56:50;3.72;;;1.17;;
12181;SDS011;6154;51.550;12.138;2024-03-23T12:59:16;1.98;;;0.95;;
12181;SDS011;6154;51.550;12.138;2024-03-23T13:01:44;1.98;;;0.82;;
12181;SDS011;6154;51.550;12.138;2024-03-23T13:04:10;3.20;;;1.10;;
12181;SDS011;6154;51.550;12.138;2024-03-23T13:06:37;1.98;;;0.77;;
12181;SDS011;6154;51.550;12.138;2024-03-23T13:09:05;3.90;;;1.20;;
12181;SDS011;6154;51.550;12.138;2024-03-23T13:11:31;3.62;;;1.40;;
12181;SDS011;6154;51.550;12.138;2024-03-23T13:13:58;2.37;;;1.20;;
12181;SDS011;6154;51.550;12.138;2024-03-23T13:16:25;1.95;;;0.85;;
12181;SDS011;6154;51.550;12.138;2024-03-23T13:18:51;2.37;;;1.23;;
12181;SDS011;6154;51.550;12.138;2024-03-23T13:21:18;4.00;;;1.10;;
12181;SDS011;6154;51.550;12.138;2024-03-23T13:23:46;24.48;;;10.55;;
12181;SDS011;6154;51.550;12.138;2024-03-23T13:26:15;3.95;;;1.58;;
12181;SDS011;6154;51.550;12.138;2024-03-23T13:28:41;3.10;;;1.05;;
12181;SDS011;6154;51.550;12.138;2024-03-23T13:31:08;1.75;;;0.60;;
12181;SDS011;6154;51.550;12.138;2024-03-23T13:33:34;1.58;;;0.88;;
12181;SDS011;6154;51.550;12.138;2024-03-23T13:36:01;1.33;;;0.75;;
12181;SDS011;6154;51.550;12.138;2024-03-23T13:38:29;0.98;;;0.80;;
12181;SDS011;6154;51.550;12.138;2024-03-23T13:40:56;2.92;;;0.90;;
12181;SDS011;6154;51.550;12.138;2024-03-23T13:43:24;5.18;;;0.45;;
12181;SDS011;6154;51.550;12.138;2024-03-23T13:45:53;1.23;;;0.77;;
12181;SDS011;6154;51.550;12.138;2024-03-23T13:48:20;1.20;;;0.52;;
12181;SDS011;6154;51.550;12.138;2024-03-23T13:50:56;3.65;;;0.50;;
12181;SDS011;6154;51.550;12.138;2024-03-23T13:53:23;2.25;;;1.15;;
12181;SDS011;6154;51.550;12.138;2024-03-23T13:55:50;4.70;;;1.20;;
12181;SDS011;6154;51.550;12.138;2024-03-23T13:58:16;1.67;;;0.70;;
12181;SDS011;6154;51.550;12.138;2024-03-23T14:00:45;0.90;;;0.40;;
12181;SDS011;6154;51.550;12.138;2024-03-23T14:03:11;0.90;;;0.37;;
12181;SDS011;6154;51.550;12.138;2024-03-23T14:05:39;1.62;;;0.80;;
12181;SDS011;6154;51.550;12.138;2024-03-23T14:08:05;1.15;;;0.50;;
12181;SDS011;6154;51.550;12.138;2024-03-23T14:10:33;5.97;;;0.95;;
12181;SDS011;6154;51.550;12.138;2024-03-23T14:12:59;0.43;;;0.32;;
12181;SDS011;6154;51.550;12.138;2024-03-23T14:15:26;2.53;;;0.57;;
12181;SDS011;6154;51.550;12.138;2024-03-23T14:17:54;0.75;;;0.73;;
12181;SDS011;6154;51.550;12.138;2024-03-23T14:20:21;0.60;;;0.60;;
12181;SDS011;6154;51.550;12.138;2024-03-23T14:22:47;1.95;;;1.00;;
12181;SDS011;6154;51.550;12.138;2024-03-23T14:25:15;1.12;;;0.60;;
12181;SDS011;6154;51.550;12.138;2024-03-23T14:27:41;1.42;;;0.60;;
12181;SDS011;6154;51.550;12.138;2024-03-23T14:30:08;2.97;;;0.60;;
12181;SDS011;6154;51.550;12.138;2024-03-23T14:32:35;3.50;;;0.85;;
12181;SDS011;6154;51.550;12.138;2024-03-23T14:35:04;1.45;;;0.70;;
12181;SDS011;6154;51.550;12.138;2024-03-23T14:37:32;1.75;;;0.60;;
12181;SDS011;6154;51.550;12.138;2024-03-23T14:39:58;0.50;;;0.50;;
12181;SDS011;6154;51.550;12.138;2024-03-23T14:42:25;0.40;;;0.40;;
12181;SDS011;6154;51.550;12.138;2024-03-23T14:44:51;0.68;;;0.60;;
12181;SDS011;6154;51.550;12.138;2024-03-23T14:47:19;0.95;;;0.70;;
12181;SDS011;6154;51.550;12.138;2024-03-23T14:49:45;0.82;;;0.52;;
12181;SDS011;6154;51.550;12.138;2024-03-23T14:52:14;1.60;;;0.77;;
12181;SDS011;6154;51.550;12.138;2024-03-23T14:54:40;1.17;;;0.50;;
12181;SDS011;6154;51.550;12.138;2024-03-23T14:57:07;0.50;;;0.50;;
12181;SDS011;6154;51.550;12.138;2024-03-23T14:59:34;1.48;;;0.73;;
12181;SDS011;6154;51.550;12.138;2024-03-23T15:02:03;0.80;;;0.77;;
12181;SDS011;6154;51.550;12.138;2024-03-23T15:04:30;1.92;;;0.88;;
12181;SDS011;6154;51.550;12.138;2024-03-23T15:06:57;1.30;;;1.08;;
12181;SDS011;6154;51.550;12.138;2024-03-23T15:09:24;2.30;;;1.27;;
12181;SDS011;6154;51.550;12.138;2024-03-23T15:11:51;2.22;;;1.40;;
12181;SDS011;6154;51.550;12.138;2024-03-23T15:14:20;2.85;;;1.37;;
12181;SDS011;6154;51.550;12.138;2024-03-23T15:16:47;3.10;;;1.15;;
12181;SDS011;6154;51.550;12.138;2024-03-23T15:19:14;1.17;;;1.08;;
12181;SDS011;6154;51.550;12.138;2024-03-23T15:21:42;4.07;;;2.10;;
12181;SDS011;6154;51.550;12.138;2024-03-23T15:24:09;4.62;;;1.65;;
12181;SDS011;6154;51.550;12.138;2024-03-23T15:26:38;1.52;;;1.12;;
12181;SDS011;6154;51.550;12.138;2024-03-23T15:29:04;2.97;;;1.45;;
12181;SDS011;6154;51.550;12.138;2024-03-23T15:31:37;2.80;;;1.52;;
12181;SDS011;6154;51.550;12.138;2024-03-23T15:34:03;2.20;;;1.23;;
12181;SDS011;6154;51.550;12.138;2024-03-23T15:36:35;3.85;;;1.37;;
12181;SDS011;6154;51.550;12.138;2024-03-23T15:39:03;2.67;;;1.20;;
12181;SDS011;6154;51.550;12.138;2024-03-23T15:41:30;4.10;;;1.92;;
12181;SDS011;6154;51.550;12.138;2024-03-23T15:43:57;3.87;;;1.95;;
12181;SDS011;6154;51.550;12.138;2024-03-23T15:46:25;2.17;;;1.40;;
12181;SDS011;6154;51.550;12.138;2024-03-23T15:48:51;1.33;;;1.20;;
12181;SDS011;6154;51.550;12.138;2024-03-23T15:51:18;2.35;;;1.77;;
12181;SDS011;6154;51.550;12.138;2024-03-23T15:53:44;3.72;;;1.45;;
12181;SDS011;6154;51.550;12.138;2024-03-23T15:56:11;2.85;;;1.27;;